GB-0028 weather

Morn Farm Helipad (Private)
Chickerell, England, United Kingdom

Public forecast

Using degrees Celsius for public forecast. Weather courtesy of forecast.io.

Closest aviation weather report (METAR) to Morn Farm Helipad (Private)

Closest report is RNAS Yeovilton, 23.6 nm (43.6 km) NNW. Retrieved 2020/07/07 22:50 UTC (30 minutes ago):

EGDY 072250Z 23007KT 9999 FEW012 BKN014 16/13 Q1016 NOSIG RMK GRN BECMG GRN

Closest aviation forecast (TAF) to Morn Farm Helipad (Private)

Forecast is more than 12 hours old.

Closest forecast is RNAS Yeovilton, 23.6 nm (43.6 km) NNW. Retrieved 2020/07/01 18:15 UTC (6 days ago):

TAF TAF EGDY 010110Z 3018/0103 CNL